sensor_id;sensor_type;location;lat;lon;timestamp;P1;durP1;ratioP1;P2;durP2;ratioP2
23680;SDS011;62915;50.832;4.462;2023-07-29T00:00:51;2.28;;;1.80;;
23680;SDS011;62915;50.832;4.462;2023-07-29T00:03:16;4.18;;;1.88;;
23680;SDS011;62915;50.832;4.462;2023-07-29T00:05:42;1.70;;;1.50;;
23680;SDS011;62915;50.832;4.462;2023-07-29T00:08:08;2.58;;;1.63;;
23680;SDS011;62915;50.832;4.462;2023-07-29T00:10:37;7.03;;;1.85;;
23680;SDS011;62915;50.832;4.462;2023-07-29T00:13:04;3.95;;;1.45;;
23680;SDS011;62915;50.832;4.462;2023-07-29T00:15:30;3.72;;;1.88;;
23680;SDS011;62915;50.832;4.462;2023-07-29T00:17:56;2.95;;;1.52;;
23680;SDS011;62915;50.832;4.462;2023-07-29T00:20:22;3.40;;;1.23;;
23680;SDS011;62915;50.832;4.462;2023-07-29T00:22:47;3.65;;;1.20;;
23680;SDS011;62915;50.832;4.462;2023-07-29T00:25:15;2.88;;;1.45;;
23680;SDS011;62915;50.832;4.462;2023-07-29T00:27:41;3.33;;;1.50;;
23680;SDS011;62915;50.832;4.462;2023-07-29T00:30:07;3.50;;;1.30;;
23680;SDS011;62915;50.832;4.462;2023-07-29T00:32:34;2.58;;;1.33;;
23680;SDS011;62915;50.832;4.462;2023-07-29T00:35:00;2.50;;;1.30;;
23680;SDS011;62915;50.832;4.462;2023-07-29T00:37:27;4.82;;;1.35;;
23680;SDS011;62915;50.832;4.462;2023-07-29T00:39:53;2.35;;;1.50;;
23680;SDS011;62915;50.832;4.462;2023-07-29T00:42:19;2.15;;;1.13;;
23680;SDS011;62915;50.832;4.462;2023-07-29T00:44:45;2.25;;;1.30;;
23680;SDS011;62915;50.832;4.462;2023-07-29T00:47:11;1.83;;;1.38;;
23680;SDS011;62915;50.832;4.462;2023-07-29T00:49:40;1.55;;;1.17;;
23680;SDS011;62915;50.832;4.462;2023-07-29T00:52:06;2.05;;;1.50;;
23680;SDS011;62915;50.832;4.462;2023-07-29T00:54:32;5.20;;;1.40;;
23680;SDS011;62915;50.832;4.462;2023-07-29T00:56:57;5.78;;;1.23;;
23680;SDS011;62915;50.832;4.462;2023-07-29T00:59:23;2.38;;;1.50;;
23680;SDS011;62915;50.832;4.462;2023-07-29T01:01:49;2.53;;;1.35;;
23680;SDS011;62915;50.832;4.462;2023-07-29T01:04:15;5.38;;;1.30;;
23680;SDS011;62915;50.832;4.462;2023-07-29T01:12:03;3.17;;;1.55;;
23680;SDS011;62915;50.832;4.462;2023-07-29T01:14:45;4.03;;;1.40;;
23680;SDS011;62915;50.832;4.462;2023-07-29T01:17:22;2.67;;;1.52;;
23680;SDS011;62915;50.832;4.462;2023-07-29T01:22:33;1.42;;;1.25;;
23680;SDS011;62915;50.832;4.462;2023-07-29T01:25:00;3.70;;;1.20;;
23680;SDS011;62915;50.832;4.462;2023-07-29T01:27:26;1.63;;;1.27;;
23680;SDS011;62915;50.832;4.462;2023-07-29T01:29:52;4.00;;;1.60;;
23680;SDS011;62915;50.832;4.462;2023-07-29T01:32:21;1.98;;;1.42;;
23680;SDS011;62915;50.832;4.462;2023-07-29T01:37:42;2.58;;;1.33;;
23680;SDS011;62915;50.832;4.462;2023-07-29T01:40:13;1.92;;;1.70;;
23680;SDS011;62915;50.832;4.462;2023-07-29T01:42:40;2.45;;;1.27;;
23680;SDS011;62915;50.832;4.462;2023-07-29T01:45:06;6.25;;;1.60;;
23680;SDS011;62915;50.832;4.462;2023-07-29T01:47:32;2.47;;;1.40;;
23680;SDS011;62915;50.832;4.462;2023-07-29T01:49:57;2.58;;;1.50;;
23680;SDS011;62915;50.832;4.462;2023-07-29T01:52:23;5.20;;;1.42;;
23680;SDS011;62915;50.832;4.462;2023-07-29T01:54:49;2.53;;;1.35;;
23680;SDS011;62915;50.832;4.462;2023-07-29T01:57:14;2.55;;;1.45;;
23680;SDS011;62915;50.832;4.462;2023-07-29T01:59:40;3.08;;;1.58;;
23680;SDS011;62915;50.832;4.462;2023-07-29T02:02:06;2.78;;;1.40;;
23680;SDS011;62915;50.832;4.462;2023-07-29T02:04:31;2.70;;;1.42;;
23680;SDS011;62915;50.832;4.462;2023-07-29T02:06:57;5.95;;;1.98;;
23680;SDS011;62915;50.832;4.462;2023-07-29T02:09:23;3.65;;;1.50;;
23680;SDS011;62915;50.832;4.462;2023-07-29T02:11:50;3.88;;;1.80;;
23680;SDS011;62915;50.832;4.462;2023-07-29T02:14:16;4.35;;;1.67;;
23680;SDS011;62915;50.832;4.462;2023-07-29T02:16:42;4.28;;;1.50;;
23680;SDS011;62915;50.832;4.462;2023-07-29T02:19:08;5.10;;;1.88;;
23680;SDS011;62915;50.832;4.462;2023-07-29T02:21:33;4.55;;;1.60;;
23680;SDS011;62915;50.832;4.462;2023-07-29T02:23:59;7.28;;;2.00;;
23680;SDS011;62915;50.832;4.462;2023-07-29T02:26:25;4.82;;;1.75;;
23680;SDS011;62915;50.832;4.462;2023-07-29T02:28:50;3.78;;;2.00;;
23680;SDS011;62915;50.832;4.462;2023-07-29T02:31:17;4.72;;;1.80;;
23680;SDS011;62915;50.832;4.462;2023-07-29T02:33:46;4.15;;;1.60;;
23680;SDS011;62915;50.832;4.462;2023-07-29T02:36:12;7.68;;;1.70;;
23680;SDS011;62915;50.832;4.462;2023-07-29T02:38:38;5.50;;;1.80;;
23680;SDS011;62915;50.832;4.462;2023-07-29T02:41:08;4.55;;;1.80;;
23680;SDS011;62915;50.832;4.462;2023-07-29T02:43:35;4.00;;;1.70;;
23680;SDS011;62915;50.832;4.462;2023-07-29T02:46:01;5.25;;;2.17;;
23680;SDS011;62915;50.832;4.462;2023-07-29T02:48:27;2.58;;;1.90;;
23680;SDS011;62915;50.832;4.462;2023-07-29T02:50:53;5.22;;;1.63;;
23680;SDS011;62915;50.832;4.462;2023-07-29T02:53:19;4.93;;;2.17;;
23680;SDS011;62915;50.832;4.462;2023-07-29T02:55:46;3.55;;;1.67;;
23680;SDS011;62915;50.832;4.462;2023-07-29T02:58:11;2.33;;;1.60;;
23680;SDS011;62915;50.832;4.462;2023-07-29T03:00:37;5.07;;;1.75;;
23680;SDS011;62915;50.832;4.462;2023-07-29T03:03:03;1.90;;;1.42;;
23680;SDS011;62915;50.832;4.462;2023-07-29T03:05:29;5.10;;;1.77;;
23680;SDS011;62915;50.832;4.462;2023-07-29T03:07:55;4.03;;;1.77;;
23680;SDS011;62915;50.832;4.462;2023-07-29T03:10:21;5.43;;;1.98;;
23680;SDS011;62915;50.832;4.462;2023-07-29T03:12:47;3.83;;;2.00;;
23680;SDS011;62915;50.832;4.462;2023-07-29T03:15:13;5.47;;;1.75;;
23680;SDS011;62915;50.832;4.462;2023-07-29T03:17:38;4.80;;;2.13;;
23680;SDS011;62915;50.832;4.462;2023-07-29T03:20:04;3.03;;;1.88;;
23680;SDS011;62915;50.832;4.462;2023-07-29T03:22:31;2.90;;;1.85;;
23680;SDS011;62915;50.832;4.462;2023-07-29T03:24:56;5.65;;;1.70;;
23680;SDS011;62915;50.832;4.462;2023-07-29T03:27:22;5.15;;;1.70;;
23680;SDS011;62915;50.832;4.462;2023-07-29T03:29:48;4.90;;;1.80;;
23680;SDS011;62915;50.832;4.462;2023-07-29T03:32:13;5.28;;;1.95;;
23680;SDS011;62915;50.832;4.462;2023-07-29T03:34:39;5.07;;;1.85;;
23680;SDS011;62915;50.832;4.462;2023-07-29T03:37:05;3.90;;;2.03;;
23680;SDS011;62915;50.832;4.462;2023-07-29T03:39:31;3.05;;;1.88;;
23680;SDS011;62915;50.832;4.462;2023-07-29T03:41:57;4.72;;;2.30;;
23680;SDS011;62915;50.832;4.462;2023-07-29T03:44:23;2.25;;;1.83;;
23680;SDS011;62915;50.832;4.462;2023-07-29T03:46:49;2.88;;;1.70;;
23680;SDS011;62915;50.832;4.462;2023-07-29T03:49:14;4.32;;;2.10;;
23680;SDS011;62915;50.832;4.462;2023-07-29T03:51:40;4.65;;;1.92;;
23680;SDS011;62915;50.832;4.462;2023-07-29T03:54:06;3.72;;;2.22;;
23680;SDS011;62915;50.832;4.462;2023-07-29T03:56:32;6.60;;;1.90;;
23680;SDS011;62915;50.832;4.462;2023-07-29T03:59:04;3.50;;;2.30;;
23680;SDS011;62915;50.832;4.462;2023-07-29T04:01:30;2.33;;;1.63;;
23680;SDS011;62915;50.832;4.462;2023-07-29T04:03:56;3.05;;;2.00;;
23680;SDS011;62915;50.832;4.462;2023-07-29T04:06:22;5.53;;;2.17;;
23680;SDS011;62915;50.832;4.462;2023-07-29T04:08:48;6.30;;;1.95;;
23680;SDS011;62915;50.832;4.462;2023-07-29T04:11:14;6.00;;;1.80;;
23680;SDS011;62915;50.832;4.462;2023-07-29T04:13:40;2.88;;;1.98;;
23680;SDS011;62915;50.832;4.462;2023-07-29T04:16:06;3.53;;;1.83;;
23680;SDS011;62915;50.832;4.462;2023-07-29T04:18:32;2.40;;;1.80;;
23680;SDS011;62915;50.832;4.462;2023-07-29T04:20:58;7.70;;;2.17;;
23680;SDS011;62915;50.832;4.462;2023-07-29T04:23:24;5.13;;;1.73;;
23680;SDS011;62915;50.832;4.462;2023-07-29T04:25:49;6.53;;;1.90;;
23680;SDS011;62915;50.832;4.462;2023-07-29T04:28:15;2.20;;;1.88;;
23680;SDS011;62915;50.832;4.462;2023-07-29T04:30:41;3.95;;;2.20;;
23680;SDS011;62915;50.832;4.462;2023-07-29T04:33:07;6.00;;;2.25;;
23680;SDS011;62915;50.832;4.462;2023-07-29T04:35:33;5.72;;;1.98;;
23680;SDS011;62915;50.832;4.462;2023-07-29T04:37:59;4.53;;;1.90;;
23680;SDS011;62915;50.832;4.462;2023-07-29T04:40:25;5.15;;;1.75;;
23680;SDS011;62915;50.832;4.462;2023-07-29T04:42:51;4.10;;;1.98;;
23680;SDS011;62915;50.832;4.462;2023-07-29T04:45:16;7.88;;;1.92;;
23680;SDS011;62915;50.832;4.462;2023-07-29T04:47:42;4.50;;;1.60;;
23680;SDS011;62915;50.832;4.462;2023-07-29T04:50:08;2.90;;;1.85;;
23680;SDS011;62915;50.832;4.462;2023-07-29T04:52:34;2.63;;;1.77;;
23680;SDS011;62915;50.832;4.462;2023-07-29T04:55:00;3.55;;;1.65;;
23680;SDS011;62915;50.832;4.462;2023-07-29T04:57:26;3.20;;;1.88;;
23680;SDS011;62915;50.832;4.462;2023-07-29T04:59:51;5.35;;;1.80;;
23680;SDS011;62915;50.832;4.462;2023-07-29T05:02:17;4.07;;;1.88;;
23680;SDS011;62915;50.832;4.462;2023-07-29T05:04:43;3.50;;;1.77;;
23680;SDS011;62915;50.832;4.462;2023-07-29T05:07:08;3.45;;;1.52;;
23680;SDS011;62915;50.832;4.462;2023-07-29T05:09:34;8.15;;;1.75;;
23680;SDS011;62915;50.832;4.462;2023-07-29T05:12:00;5.85;;;1.70;;
23680;SDS011;62915;50.832;4.462;2023-07-29T05:14:25;2.58;;;1.52;;
23680;SDS011;62915;50.832;4.462;2023-07-29T05:16:51;3.85;;;1.65;;
23680;SDS011;62915;50.832;4.462;2023-07-29T05:19:17;2.20;;;1.60;;
23680;SDS011;62915;50.832;4.462;2023-07-29T05:21:43;3.22;;;1.65;;
23680;SDS011;62915;50.832;4.462;2023-07-29T05:24:08;3.45;;;1.63;;
23680;SDS011;62915;50.832;4.462;2023-07-29T05:26:34;1.60;;;1.48;;
23680;SDS011;62915;50.832;4.462;2023-07-29T05:29:00;1.83;;;1.42;;
23680;SDS011;62915;50.832;4.462;2023-07-29T05:31:25;4.32;;;1.40;;
23680;SDS011;62915;50.832;4.462;2023-07-29T05:33:51;2.95;;;1.80;;
23680;SDS011;62915;50.832;4.462;2023-07-29T05:36:17;5.07;;;1.75;;
23680;SDS011;62915;50.832;4.462;2023-07-29T05:38:42;7.80;;;1.80;;
23680;SDS011;62915;50.832;4.462;2023-07-29T05:41:08;5.20;;;1.60;;
23680;SDS011;62915;50.832;4.462;2023-07-29T05:43:34;3.70;;;1.55;;
23680;SDS011;62915;50.832;4.462;2023-07-29T05:46:00;2.63;;;1.30;;
23680;SDS011;62915;50.832;4.462;2023-07-29T05:48:25;4.95;;;1.40;;
23680;SDS011;62915;50.832;4.462;2023-07-29T05:50:51;3.55;;;1.88;;
23680;SDS011;62915;50.832;4.462;2023-07-29T05:53:17;1.40;;;1.30;;
23680;SDS011;62915;50.832;4.462;2023-07-29T05:55:43;2.47;;;1.40;;
23680;SDS011;62915;50.832;4.462;2023-07-29T05:58:08;7.63;;;1.48;;
23680;SDS011;62915;50.832;4.462;2023-07-29T06:00:34;5.55;;;1.77;;
23680;SDS011;62915;50.832;4.462;2023-07-29T06:03:00;3.58;;;1.45;;
23680;SDS011;62915;50.832;4.462;2023-07-29T06:05:26;2.35;;;1.42;;
23680;SDS011;62915;50.832;4.462;2023-07-29T06:07:52;3.78;;;1.45;;
23680;SDS011;62915;50.832;4.462;2023-07-29T06:10:17;3.35;;;1.70;;
23680;SDS011;62915;50.832;4.462;2023-07-29T06:12:44;3.08;;;1.30;;
23680;SDS011;62915;50.832;4.462;2023-07-29T06:15:10;2.05;;;1.60;;
23680;SDS011;62915;50.832;4.462;2023-07-29T06:17:37;3.65;;;1.55;;
23680;SDS011;62915;50.832;4.462;2023-07-29T06:20:03;5.20;;;1.40;;
23680;SDS011;62915;50.832;4.462;2023-07-29T06:22:29;3.25;;;1.42;;
23680;SDS011;62915;50.832;4.462;2023-07-29T06:24:55;2.20;;;1.15;;
23680;SDS011;62915;50.832;4.462;2023-07-29T06:27:21;2.20;;;1.17;;
23680;SDS011;62915;50.832;4.462;2023-07-29T06:29:46;1.85;;;1.30;;
23680;SDS011;62915;50.832;4.462;2023-07-29T06:32:12;3.50;;;1.38;;
23680;SDS011;62915;50.832;4.462;2023-07-29T06:34:38;1.50;;;1.10;;
23680;SDS011;62915;50.832;4.462;2023-07-29T06:37:03;3.10;;;1.40;;
23680;SDS011;62915;50.832;4.462;2023-07-29T06:39:29;1.50;;;1.27;;
23680;SDS011;62915;50.832;4.462;2023-07-29T06:41:55;2.50;;;1.33;;
23680;SDS011;62915;50.832;4.462;2023-07-29T06:44:20;2.78;;;0.95;;
23680;SDS011;62915;50.832;4.462;2023-07-29T06:46:46;1.52;;;1.00;;
23680;SDS011;62915;50.832;4.462;2023-07-29T06:49:12;2.67;;;1.13;;
23680;SDS011;62915;50.832;4.462;2023-07-29T06:51:38;2.10;;;1.50;;
23680;SDS011;62915;50.832;4.462;2023-07-29T06:54:03;3.97;;;1.15;;
23680;SDS011;62915;50.832;4.462;2023-07-29T06:56:29;2.03;;;1.38;;
23680;SDS011;62915;50.832;4.462;2023-07-29T06:58:55;1.73;;;1.20;;
23680;SDS011;62915;50.832;4.462;2023-07-29T07:01:21;1.83;;;1.30;;
23680;SDS011;62915;50.832;4.462;2023-07-29T07:03:46;1.73;;;1.27;;
23680;SDS011;62915;50.832;4.462;2023-07-29T07:06:12;2.33;;;1.48;;
23680;SDS011;62915;50.832;4.462;2023-07-29T07:08:38;3.53;;;1.23;;
23680;SDS011;62915;50.832;4.462;2023-07-29T07:11:03;3.55;;;1.20;;
23680;SDS011;62915;50.832;4.462;2023-07-29T07:13:29;1.50;;;1.05;;
23680;SDS011;62915;50.832;4.462;2023-07-29T07:15:55;3.67;;;1.50;;
23680;SDS011;62915;50.832;4.462;2023-07-29T07:18:21;3.15;;;1.20;;
23680;SDS011;62915;50.832;4.462;2023-07-29T07:20:50;3.03;;;1.30;;
23680;SDS011;62915;50.832;4.462;2023-07-29T07:23:16;2.10;;;1.20;;
23680;SDS011;62915;50.832;4.462;2023-07-29T07:25:42;3.60;;;1.13;;
23680;SDS011;62915;50.832;4.462;2023-07-29T07:28:08;3.50;;;1.33;;
23680;SDS011;62915;50.832;4.462;2023-07-29T07:30:34;1.52;;;1.23;;
23680;SDS011;62915;50.832;4.462;2023-07-29T07:33:00;3.20;;;0.98;;
23680;SDS011;62915;50.832;4.462;2023-07-29T07:35:26;3.55;;;1.35;;
23680;SDS011;62915;50.832;4.462;2023-07-29T07:37:52;3.75;;;1.23;;
23680;SDS011;62915;50.832;4.462;2023-07-29T07:40:18;2.00;;;1.15;;
23680;SDS011;62915;50.832;4.462;2023-07-29T07:42:43;3.45;;;1.50;;
23680;SDS011;62915;50.832;4.462;2023-07-29T07:45:09;5.68;;;1.52;;
23680;SDS011;62915;50.832;4.462;2023-07-29T07:47:35;3.30;;;1.48;;
23680;SDS011;62915;50.832;4.462;2023-07-29T07:50:00;5.35;;;1.55;;
23680;SDS011;62915;50.832;4.462;2023-07-29T07:52:26;2.17;;;1.58;;
23680;SDS011;62915;50.832;4.462;2023-07-29T07:54:53;2.08;;;1.17;;
23680;SDS011;62915;50.832;4.462;2023-07-29T07:57:20;2.35;;;1.00;;
23680;SDS011;62915;50.832;4.462;2023-07-29T07:59:49;3.60;;;1.45;;
23680;SDS011;62915;50.832;4.462;2023-07-29T08:02:15;5.93;;;1.40;;
23680;SDS011;62915;50.832;4.462;2023-07-29T08:04:41;1.60;;;1.10;;
23680;SDS011;62915;50.832;4.462;2023-07-29T08:07:07;3.17;;;1.25;;
23680;SDS011;62915;50.832;4.462;2023-07-29T08:09:32;2.25;;;1.42;;
23680;SDS011;62915;50.832;4.462;2023-07-29T08:11:58;5.18;;;1.33;;
23680;SDS011;62915;50.832;4.462;2023-07-29T08:14:24;5.75;;;1.40;;
23680;SDS011;62915;50.832;4.462;2023-07-29T08:16:49;3.15;;;1.52;;
23680;SDS011;62915;50.832;4.462;2023-07-29T08:19:15;3.58;;;1.38;;
23680;SDS011;62915;50.832;4.462;2023-07-29T08:21:41;1.77;;;0.98;;
23680;SDS011;62915;50.832;4.462;2023-07-29T08:24:06;4.95;;;1.50;;
23680;SDS011;62915;50.832;4.462;2023-07-29T08:26:32;1.20;;;1.10;;
23680;SDS011;62915;50.832;4.462;2023-07-29T08:28:58;1.92;;;1.20;;
23680;SDS011;62915;50.832;4.462;2023-07-29T08:31:24;3.55;;;1.80;;
23680;SDS011;62915;50.832;4.462;2023-07-29T08:33:49;1.55;;;1.20;;
23680;SDS011;62915;50.832;4.462;2023-07-29T08:36:15;3.92;;;1.75;;
23680;SDS011;62915;50.832;4.462;2023-07-29T08:38:41;2.30;;;1.40;;
23680;SDS011;62915;50.832;4.462;2023-07-29T08:41:16;3.03;;;1.23;;
23680;SDS011;62915;50.832;4.462;2023-07-29T08:44:01;2.22;;;1.17;;
23680;SDS011;62915;50.832;4.462;2023-07-29T08:46:34;4.45;;;1.30;;
23680;SDS011;62915;50.832;4.462;2023-07-29T08:48:59;2.03;;;1.35;;
23680;SDS011;62915;50.832;4.462;2023-07-29T08:51:27;3.53;;;1.23;;
23680;SDS011;62915;50.832;4.462;2023-07-29T08:53:54;3.38;;;1.40;;
23680;SDS011;62915;50.832;4.462;2023-07-29T08:56:20;1.30;;;1.02;;
23680;SDS011;62915;50.832;4.462;2023-07-29T08:58:47;5.65;;;1.63;;
23680;SDS011;62915;50.832;4.462;2023-07-29T09:01:13;2.63;;;1.30;;
23680;SDS011;62915;50.832;4.462;2023-07-29T09:03:40;3.45;;;1.40;;
23680;SDS011;62915;50.832;4.462;2023-07-29T09:06:06;1.83;;;1.38;;
23680;SDS011;62915;50.832;4.462;2023-07-29T09:08:33;2.90;;;1.50;;
23680;SDS011;62915;50.832;4.462;2023-07-29T09:10:59;2.75;;;1.30;;
23680;SDS011;62915;50.832;4.462;2023-07-29T09:13:26;1.70;;;1.25;;
23680;SDS011;62915;50.832;4.462;2023-07-29T09:15:55;1.77;;;1.20;;
23680;SDS011;62915;50.832;4.462;2023-07-29T09:18:23;2.75;;;1.92;;
23680;SDS011;62915;50.832;4.462;2023-07-29T09:20:51;1.92;;;1.42;;
23680;SDS011;62915;50.832;4.462;2023-07-29T09:23:18;3.58;;;1.58;;
23680;SDS011;62915;50.832;4.462;2023-07-29T09:25:44;2.67;;;1.70;;
23680;SDS011;62915;50.832;4.462;2023-07-29T09:28:15;2.10;;;1.30;;
23680;SDS011;62915;50.832;4.462;2023-07-29T09:30:45;2.92;;;1.70;;
23680;SDS011;62915;50.832;4.462;2023-07-29T09:33:12;1.95;;;1.40;;
23680;SDS011;62915;50.832;4.462;2023-07-29T09:35:38;1.85;;;1.50;;
23680;SDS011;62915;50.832;4.462;2023-07-29T09:38:04;1.70;;;1.25;;
23680;SDS011;62915;50.832;4.462;2023-07-29T09:40:37;2.42;;;1.70;;
23680;SDS011;62915;50.832;4.462;2023-07-29T09:45:32;2.97;;;1.70;;
23680;SDS011;62915;50.832;4.462;2023-07-29T09:48:00;3.92;;;1.40;;
23680;SDS011;62915;50.832;4.462;2023-07-29T09:50:28;5.05;;;1.92;;
23680;SDS011;62915;50.832;4.462;2023-07-29T09:52:55;3.92;;;1.40;;
23680;SDS011;62915;50.832;4.462;2023-07-29T09:55:23;2.95;;;1.50;;
23680;SDS011;62915;50.832;4.462;2023-07-29T09:57:59;2.28;;;1.92;;
23680;SDS011;62915;50.832;4.462;2023-07-29T10:00:28;2.00;;;1.40;;
23680;SDS011;62915;50.832;4.462;2023-07-29T10:02:54;2.95;;;2.00;;
23680;SDS011;62915;50.832;4.462;2023-07-29T10:05:22;6.85;;;1.65;;
23680;SDS011;62915;50.832;4.462;2023-07-29T10:07:51;2.00;;;1.80;;
23680;SDS011;62915;50.832;4.462;2023-07-29T10:10:17;2.38;;;1.95;;
23680;SDS011;62915;50.832;4.462;2023-07-29T10:12:42;2.65;;;1.85;;
23680;SDS011;62915;50.832;4.462;2023-07-29T10:15:09;3.47;;;1.60;;
23680;SDS011;62915;50.832;4.462;2023-07-29T10:17:36;4.82;;;1.70;;
23680;SDS011;62915;50.832;4.462;2023-07-29T10:20:09;1.95;;;1.70;;
23680;SDS011;62915;50.832;4.462;2023-07-29T10:22:39;2.15;;;1.80;;
23680;SDS011;62915;50.832;4.462;2023-07-29T10:27:43;4.35;;;1.73;;
23680;SDS011;62915;50.832;4.462;2023-07-29T10:30:12;1.73;;;1.35;;
23680;SDS011;62915;50.832;4.462;2023-07-29T10:32:41;3.92;;;1.70;;
23680;SDS011;62915;50.832;4.462;2023-07-29T10:35:09;2.10;;;1.77;;
23680;SDS011;62915;50.832;4.462;2023-07-29T10:37:35;3.38;;;2.05;;
23680;SDS011;62915;50.832;4.462;2023-07-29T10:40:05;7.68;;;2.10;;
23680;SDS011;62915;50.832;4.462;2023-07-29T10:42:32;3.00;;;1.88;;
23680;SDS011;62915;50.832;4.462;2023-07-29T10:44:57;5.13;;;2.40;;
23680;SDS011;62915;50.832;4.462;2023-07-29T10:47:24;3.60;;;1.67;;
23680;SDS011;62915;50.832;4.462;2023-07-29T10:49:53;2.33;;;2.10;;
23680;SDS011;62915;50.832;4.462;2023-07-29T10:55:00;3.85;;;1.85;;
23680;SDS011;62915;50.832;4.462;2023-07-29T10:57:32;3.47;;;1.88;;
23680;SDS011;62915;50.832;4.462;2023-07-29T11:00:03;2.42;;;2.22;;
23680;SDS011;62915;50.832;4.462;2023-07-29T11:02:36;3.25;;;1.95;;
23680;SDS011;62915;50.832;4.462;2023-07-29T11:05:07;6.47;;;2.50;;
23680;SDS011;62915;50.832;4.462;2023-07-29T11:07:45;2.25;;;2.05;;
23680;SDS011;62915;50.832;4.462;2023-07-29T11:10:13;2.55;;;2.22;;
23680;SDS011;62915;50.832;4.462;2023-07-29T11:12:43;3.33;;;2.22;;
23680;SDS011;62915;50.832;4.462;2023-07-29T11:15:16;3.97;;;2.20;;
23680;SDS011;62915;50.832;4.462;2023-07-29T11:17:54;4.72;;;2.30;;
23680;SDS011;62915;50.832;4.462;2023-07-29T11:20:23;4.25;;;2.67;;
23680;SDS011;62915;50.832;4.462;2023-07-29T11:22:50;3.35;;;2.50;;
23680;SDS011;62915;50.832;4.462;2023-07-29T11:25:17;4.53;;;2.42;;
23680;SDS011;62915;50.832;4.462;2023-07-29T11:27:44;2.83;;;2.20;;
23680;SDS011;62915;50.832;4.462;2023-07-29T11:30:11;2.72;;;2.33;;
23680;SDS011;62915;50.832;4.462;2023-07-29T11:32:38;2.35;;;1.98;;
23680;SDS011;62915;50.832;4.462;2023-07-29T11:35:09;2.15;;;1.95;;
23680;SDS011;62915;50.832;4.462;2023-07-29T11:37:38;3.42;;;2.30;;
23680;SDS011;62915;50.832;4.462;2023-07-29T11:40:04;3.83;;;2.38;;
23680;SDS011;62915;50.832;4.462;2023-07-29T11:42:34;3.53;;;2.10;;
23680;SDS011;62915;50.832;4.462;2023-07-29T11:45:02;4.93;;;2.55;;
23680;SDS011;62915;50.832;4.462;2023-07-29T11:47:29;4.18;;;2.60;;
23680;SDS011;62915;50.832;4.462;2023-07-29T11:49:57;2.53;;;2.33;;
23680;SDS011;62915;50.832;4.462;2023-07-29T11:52:25;3.05;;;2.35;;
23680;SDS011;62915;50.832;4.462;2023-07-29T11:54:52;2.95;;;2.13;;
23680;SDS011;62915;50.832;4.462;2023-07-29T11:57:18;6.20;;;2.33;;
23680;SDS011;62915;50.832;4.462;2023-07-29T11:59:45;2.65;;;2.28;;
23680;SDS011;62915;50.832;4.462;2023-07-29T12:02:15;2.03;;;1.92;;
23680;SDS011;62915;50.832;4.462;2023-07-29T12:04:43;2.33;;;2.00;;
23680;SDS011;62915;50.832;4.462;2023-07-29T12:07:11;2.85;;;2.65;;
23680;SDS011;62915;50.832;4.462;2023-07-29T12:09:38;2.13;;;1.92;;
23680;SDS011;62915;50.832;4.462;2023-07-29T12:12:05;3.85;;;2.42;;
23680;SDS011;62915;50.832;4.462;2023-07-29T12:14:32;2.78;;;2.15;;
23680;SDS011;62915;50.832;4.462;2023-07-29T12:17:02;5.90;;;2.53;;
23680;SDS011;62915;50.832;4.462;2023-07-29T12:19:32;2.42;;;2.22;;
23680;SDS011;62915;50.832;4.462;2023-07-29T12:22:01;4.70;;;2.75;;
23680;SDS011;62915;50.832;4.462;2023-07-29T12:24:27;4.32;;;2.53;;
23680;SDS011;62915;50.832;4.462;2023-07-29T12:26:54;5.72;;;2.90;;
23680;SDS011;62915;50.832;4.462;2023-07-29T12:29:20;3.13;;;2.60;;
23680;SDS011;62915;50.832;4.462;2023-07-29T12:31:46;3.05;;;2.50;;
23680;SDS011;62915;50.832;4.462;2023-07-29T12:34:21;3.47;;;2.72;;
23680;SDS011;62915;50.832;4.462;2023-07-29T12:36:50;4.60;;;2.75;;
23680;SDS011;62915;50.832;4.462;2023-07-29T12:41:42;7.72;;;3.05;;
23680;SDS011;62915;50.832;4.462;2023-07-29T12:44:08;5.70;;;3.10;;
23680;SDS011;62915;50.832;4.462;2023-07-29T12:46:34;5.20;;;3.05;;
23680;SDS011;62915;50.832;4.462;2023-07-29T12:48:59;5.68;;;3.50;;
23680;SDS011;62915;50.832;4.462;2023-07-29T12:51:25;5.75;;;3.30;;
23680;SDS011;62915;50.832;4.462;2023-07-29T12:53:52;3.13;;;2.67;;
23680;SDS011;62915;50.832;4.462;2023-07-29T12:56:19;3.58;;;2.85;;
23680;SDS011;62915;50.832;4.462;2023-07-29T12:58:48;5.10;;;3.17;;
23680;SDS011;62915;50.832;4.462;2023-07-29T13:01:14;4.13;;;3.72;;
23680;SDS011;62915;50.832;4.462;2023-07-29T13:03:47;5.63;;;3.13;;
23680;SDS011;62915;50.832;4.462;2023-07-29T13:06:15;3.65;;;3.35;;
23680;SDS011;62915;50.832;4.462;2023-07-29T13:08:41;4.15;;;3.38;;
23680;SDS011;62915;50.832;4.462;2023-07-29T13:11:08;3.67;;;2.80;;
23680;SDS011;62915;50.832;4.462;2023-07-29T13:13:33;4.88;;;2.75;;
23680;SDS011;62915;50.832;4.462;2023-07-29T13:15:59;3.17;;;2.45;;
23680;SDS011;62915;50.832;4.462;2023-07-29T13:18:26;4.68;;;3.42;;
23680;SDS011;62915;50.832;4.462;2023-07-29T13:20:52;3.65;;;3.35;;
23680;SDS011;62915;50.832;4.462;2023-07-29T13:23:18;4.15;;;3.78;;
23680;SDS011;62915;50.832;4.462;2023-07-29T13:25:44;3.85;;;3.55;;
23680;SDS011;62915;50.832;4.462;2023-07-29T13:28:10;4.40;;;4.03;;
23680;SDS011;62915;50.832;4.462;2023-07-29T13:30:38;4.13;;;3.72;;
23680;SDS011;62915;50.832;4.462;2023-07-29T13:33:04;3.88;;;3.30;;
23680;SDS011;62915;50.832;4.462;2023-07-29T13:35:30;4.45;;;3.35;;
23680;SDS011;62915;50.832;4.462;2023-07-29T13:37:56;5.85;;;5.18;;
23680;SDS011;62915;50.832;4.462;2023-07-29T13:40:21;3.80;;;3.40;;
23680;SDS011;62915;50.832;4.462;2023-07-29T13:42:47;3.60;;;3.25;;
23680;SDS011;62915;50.832;4.462;2023-07-29T13:45:13;4.05;;;3.38;;
23680;SDS011;62915;50.832;4.462;2023-07-29T13:47:39;3.65;;;2.80;;
23680;SDS011;62915;50.832;4.462;2023-07-29T13:50:04;3.40;;;2.42;;
23680;SDS011;62915;50.832;4.462;2023-07-29T13:52:32;7.55;;;5.70;;
23680;SDS011;62915;50.832;4.462;2023-07-29T13:54:58;5.00;;;4.50;;
23680;SDS011;62915;50.832;4.462;2023-07-29T13:57:25;2.30;;;2.10;;
23680;SDS011;62915;50.832;4.462;2023-07-29T13:59:50;2.70;;;1.92;;
23680;SDS011;62915;50.832;4.462;2023-07-29T14:02:16;2.40;;;2.20;;
23680;SDS011;62915;50.832;4.462;2023-07-29T14:04:42;2.65;;;2.15;;
23680;SDS011;62915;50.832;4.462;2023-07-29T14:07:07;2.63;;;2.30;;
23680;SDS011;62915;50.832;4.462;2023-07-29T14:09:33;3.03;;;2.45;;
23680;SDS011;62915;50.832;4.462;2023-07-29T14:11:59;1.80;;;1.70;;
23680;SDS011;62915;50.832;4.462;2023-07-29T14:14:24;2.50;;;1.75;;
23680;SDS011;62915;50.832;4.462;2023-07-29T14:16:50;5.60;;;2.53;;
23680;SDS011;62915;50.832;4.462;2023-07-29T14:19:16;7.20;;;4.60;;
23680;SDS011;62915;50.832;4.462;2023-07-29T14:21:42;3.17;;;2.83;;
23680;SDS011;62915;50.832;4.462;2023-07-29T14:24:07;2.40;;;1.90;;
23680;SDS011;62915;50.832;4.462;2023-07-29T14:26:33;3.92;;;3.00;;
23680;SDS011;62915;50.832;4.462;2023-07-29T14:28:59;5.72;;;4.53;;
23680;SDS011;62915;50.832;4.462;2023-07-29T14:31:24;2.60;;;2.03;;
23680;SDS011;62915;50.832;4.462;2023-07-29T14:33:50;4.18;;;1.80;;
23680;SDS011;62915;50.832;4.462;2023-07-29T14:36:16;2.35;;;1.63;;
23680;SDS011;62915;50.832;4.462;2023-07-29T14:38:41;2.63;;;2.40;;
23680;SDS011;62915;50.832;4.462;2023-07-29T14:41:07;2.17;;;1.70;;
23680;SDS011;62915;50.832;4.462;2023-07-29T14:43:33;2.30;;;1.98;;
23680;SDS011;62915;50.832;4.462;2023-07-29T14:46:00;1.50;;;1.40;;
23680;SDS011;62915;50.832;4.462;2023-07-29T14:48:26;5.55;;;3.45;;
23680;SDS011;62915;50.832;4.462;2023-07-29T14:50:51;3.85;;;2.25;;
23680;SDS011;62915;50.832;4.462;2023-07-29T14:53:17;1.65;;;1.55;;
23680;SDS011;62915;50.832;4.462;2023-07-29T14:55:43;4.00;;;2.58;;
23680;SDS011;62915;50.832;4.462;2023-07-29T14:58:09;4.60;;;2.03;;
23680;SDS011;62915;50.832;4.462;2023-07-29T15:00:34;2.55;;;1.63;;
23680;SDS011;62915;50.832;4.462;2023-07-29T15:03:01;2.10;;;1.90;;
23680;SDS011;62915;50.832;4.462;2023-07-29T15:05:27;3.75;;;3.10;;